createdAt,value
2023-02-02T00:00:17.857Z,2.631944
2023-02-02T00:05:18.012Z,2.740741
2023-02-02T00:10:17.938Z,2.851852
2023-02-02T00:15:18.060Z,2.937500
2023-02-02T00:20:17.946Z,2.990741
2023-02-02T00:25:17.843Z,2.988889
2023-02-02T00:30:17.813Z,2.956019
2023-02-02T00:35:17.817Z,2.944444
2023-02-02T00:40:18.035Z,2.958333
2023-02-02T00:45:17.947Z,3.002315
2023-02-02T00:50:17.835Z,3.074074
2023-02-02T00:55:17.858Z,3.136574
2023-02-02T01:00:17.886Z,3.166667
2023-02-02T01:05:17.868Z,3.166667
2023-02-02T01:10:18.111Z,3.166667
2023-02-02T01:15:17.894Z,3.162037
2023-02-02T01:20:17.862Z,3.164352
2023-02-02T01:25:17.905Z,3.164444
2023-02-02T01:30:18.227Z,3.166667
2023-02-02T01:35:17.832Z,3.166667
2023-02-02T01:40:17.833Z,3.168889
2023-02-02T01:45:18.072Z,3.152778
2023-02-02T01:50:17.776Z,3.122685
2023-02-02T01:55:18.008Z,3.094907
2023-02-02T02:00:17.846Z,3.064815
2023-02-02T02:05:17.827Z,3.039352
2023-02-02T02:10:17.812Z,3.048611
2023-02-02T02:15:17.929Z,3.057870
2023-02-02T02:20:19.746Z,3.085648
2023-02-02T02:25:17.767Z,3.127315
2023-02-02T02:30:17.897Z,3.155093
2023-02-02T02:35:18.041Z,3.171296
2023-02-02T02:40:17.947Z,3.203704
2023-02-02T02:45:17.852Z,3.270833
2023-02-02T02:50:17.851Z,3.340278
2023-02-02T02:55:17.919Z,3.430556
2023-02-02T03:00:18.051Z,3.495370
2023-02-02T03:05:17.894Z,3.539352
2023-02-02T03:10:17.843Z,3.562222
2023-02-02T03:15:18.050Z,3.594907
2023-02-02T03:20:18.118Z,3.604167
2023-02-02T03:25:18.090Z,3.597778
2023-02-02T03:30:18.153Z,3.587963
2023-02-02T03:35:18.081Z,3.601852
2023-02-02T03:40:18.002Z,3.606481
2023-02-02T03:45:18.005Z,3.611111
2023-02-02T03:50:17.885Z,3.611111
2023-02-02T03:55:17.872Z,3.620370
2023-02-02T04:00:18.031Z,3.637778
2023-02-02T04:05:17.797Z,3.643519
2023-02-02T04:10:17.907Z,3.659722
2023-02-02T04:15:18.244Z,3.662037
2023-02-02T04:20:18.096Z,3.662037
2023-02-02T04:25:17.815Z,3.659722
2023-02-02T04:30:17.883Z,3.664444
2023-02-02T04:35:17.811Z,3.680556
2023-02-02T04:40:17.845Z,3.708333
2023-02-02T04:45:17.902Z,3.729167
2023-02-02T04:50:17.752Z,3.729167
2023-02-02T04:55:17.957Z,3.738426
2023-02-02T05:00:17.938Z,3.754630
2023-02-02T05:05:18.060Z,3.773148
2023-02-02T05:10:17.916Z,3.782407
2023-02-02T05:15:17.881Z,3.803241
2023-02-02T05:20:17.749Z,3.819444
2023-02-02T05:25:17.971Z,3.798611
2023-02-02T05:30:17.800Z,3.784722
2023-02-02T05:35:18.372Z,3.784444
2023-02-02T05:40:17.740Z,3.787037
2023-02-02T05:45:17.791Z,3.777778
2023-02-02T05:50:17.813Z,3.787037
2023-02-02T05:55:17.998Z,3.784722
2023-02-02T06:00:17.629Z,3.777778
2023-02-02T06:05:17.690Z,3.773148
2023-02-02T06:10:17.873Z,3.768519
2023-02-02T06:15:18.340Z,3.761574
2023-02-02T06:20:17.843Z,3.745370
2023-02-02T06:25:17.786Z,3.763889
2023-02-02T06:30:17.772Z,3.768519
2023-02-02T06:35:17.828Z,3.775463
2023-02-02T06:40:17.850Z,3.784722
2023-02-02T06:45:17.813Z,3.814815
2023-02-02T06:50:17.986Z,3.875000
2023-02-02T06:55:17.811Z,3.902778
2023-02-02T07:00:20.413Z,3.932870
2023-02-02T07:05:17.990Z,3.937500
2023-02-02T07:11:12.431Z,3.939815
2023-02-02T07:15:17.902Z,3.928241
2023-02-02T07:20:17.775Z,3.935185
2023-02-02T07:25:18.114Z,3.946759
2023-02-02T07:30:18.036Z,3.981481
2023-02-02T07:35:18.100Z,4.006944
2023-02-02T07:40:17.827Z,4.043981
2023-02-02T07:45:27.003Z,4.060185
2023-02-02T07:50:17.781Z,4.111111
2023-02-02T07:55:17.827Z,4.131944
2023-02-02T08:00:17.840Z,4.162037
2023-02-02T08:05:17.873Z,4.185185
2023-02-02T08:10:17.947Z,4.254630
2023-02-02T08:15:17.859Z,4.305556
2023-02-02T08:20:17.783Z,4.347222
2023-02-02T08:25:17.983Z,4.398148
2023-02-02T08:30:17.692Z,4.446759
2023-02-02T08:35:17.638Z,4.495370
2023-02-02T08:40:17.911Z,4.500000
2023-02-02T08:46:01.460Z,4.525463
2023-02-02T08:50:17.698Z,4.553241
2023-02-02T08:55:18.083Z,4.576389
2023-02-02T09:00:17.745Z,4.618056
2023-02-02T09:05:17.792Z,4.648148
2023-02-02T09:10:17.635Z,4.666667
2023-02-02T09:15:18.208Z,4.687500
2023-02-02T09:20:19.692Z,4.706019
2023-02-02T09:25:17.702Z,4.682870
2023-02-02T09:30:17.786Z,4.675926
2023-02-02T09:35:17.731Z,4.675926
2023-02-02T09:40:18.229Z,4.692130
2023-02-02T09:45:18.055Z,4.680556
2023-02-02T09:50:17.740Z,4.688889
2023-02-02T09:55:17.741Z,4.706019
2023-02-02T10:00:17.673Z,4.701389
2023-02-02T10:05:17.634Z,4.724537
2023-02-02T10:10:17.978Z,4.761574
2023-02-02T10:15:17.914Z,4.784722
2023-02-02T10:20:17.680Z,4.826389
2023-02-02T10:25:17.733Z,4.860000
2023-02-02T10:30:17.676Z,4.895833
2023-02-02T10:35:17.632Z,4.914352
2023-02-02T10:40:17.816Z,4.898148
2023-02-02T10:45:17.553Z,4.865741
2023-02-02T10:50:17.937Z,4.747685
2023-02-02T10:55:17.705Z,4.638889
2023-02-02T11:00:17.815Z,4.606481
2023-02-02T11:05:17.875Z,4.574074
2023-02-02T11:10:17.617Z,4.562500
2023-02-02T11:15:17.956Z,4.564815
2023-02-02T11:20:17.641Z,4.581019
2023-02-02T11:25:17.631Z,4.615741
2023-02-02T11:30:17.627Z,4.655093
2023-02-02T11:35:17.929Z,4.655093
2023-02-02T11:40:18.026Z,4.631944
2023-02-02T11:45:18.140Z,4.608796
2023-02-02T11:50:18.509Z,4.606481
2023-02-02T11:55:17.782Z,4.601852
2023-02-02T12:00:18.148Z,4.578704
2023-02-02T12:05:17.636Z,4.552778
2023-02-02T12:10:17.849Z,4.624444
2023-02-02T12:15:17.850Z,4.891204
2023-02-02T12:20:17.559Z,5.043981
2023-02-02T12:25:17.661Z,5.062500
2023-02-02T12:30:17.644Z,5.048611
2023-02-02T12:35:17.802Z,4.949074
2023-02-02T12:40:17.835Z,4.939815
2023-02-02T12:45:17.849Z,4.928241
2023-02-02T12:50:18.063Z,4.958333
2023-02-02T12:55:17.781Z,5.023148
2023-02-02T13:00:17.707Z,5.083333
2023-02-02T13:05:17.543Z,5.108796
2023-02-02T13:10:17.569Z,5.060185
2023-02-02T13:15:17.739Z,5.013889
2023-02-02T13:20:17.550Z,4.907407
2023-02-02T13:25:17.496Z,4.810185
2023-02-02T13:30:17.563Z,4.768519
2023-02-02T13:35:17.775Z,4.706019
2023-02-02T13:40:17.494Z,4.567130
2023-02-02T13:45:17.576Z,4.694444
2023-02-02T13:50:17.514Z,4.819444
2023-02-02T13:55:17.655Z,4.789352
2023-02-02T14:00:17.686Z,4.731481
2023-02-02T14:05:18.110Z,4.659722
2023-02-02T14:10:17.508Z,4.597222
2023-02-02T14:15:18.004Z,4.581019
2023-02-02T14:20:17.602Z,4.578704
2023-02-02T14:25:17.625Z,4.645833
2023-02-02T14:30:17.913Z,4.666667
2023-02-02T14:35:17.610Z,4.678241
2023-02-02T14:40:17.607Z,4.706019
2023-02-02T14:45:17.598Z,4.671296
2023-02-02T14:50:17.604Z,4.652778
2023-02-02T14:55:17.806Z,4.615741
2023-02-02T15:00:17.535Z,4.601852
2023-02-02T15:05:17.560Z,4.587963
2023-02-02T15:10:17.492Z,4.555556
2023-02-02T15:15:17.734Z,4.518519
2023-02-02T15:20:17.733Z,4.458333
2023-02-02T15:25:17.595Z,4.405093
2023-02-02T15:30:17.536Z,4.337963
2023-02-02T15:35:17.679Z,4.319444
2023-02-02T15:40:17.516Z,4.275463
2023-02-02T15:45:17.492Z,4.238426
2023-02-02T15:50:17.610Z,4.182870
2023-02-02T15:55:17.646Z,4.152778
2023-02-02T16:00:17.485Z,4.101852
2023-02-02T16:05:17.576Z,4.057870
2023-02-02T16:10:17.709Z,4.043981
2023-02-02T16:15:17.714Z,4.046296
2023-02-02T16:20:17.487Z,4.050926
2023-02-02T16:25:17.587Z,4.050926
2023-02-02T16:30:17.531Z,4.050926
2023-02-02T16:35:17.673Z,4.048611
2023-02-02T16:40:17.516Z,4.034722
2023-02-02T16:45:17.583Z,3.990741
2023-02-02T16:50:17.429Z,3.930556
2023-02-02T16:55:17.915Z,3.886574
2023-02-02T17:00:17.487Z,3.835648
2023-02-02T17:05:17.625Z,3.784722
2023-02-02T17:10:17.442Z,3.743056
2023-02-02T17:15:17.699Z,3.699074
2023-02-02T17:20:17.533Z,3.680556
2023-02-02T17:25:17.584Z,3.678241
2023-02-02T17:30:17.544Z,3.694444
2023-02-02T17:35:17.609Z,3.678241
2023-02-02T17:40:17.461Z,3.668981
2023-02-02T17:45:17.874Z,3.648148
2023-02-02T17:50:17.547Z,3.587963
2023-02-02T17:55:17.464Z,3.472222
2023-02-02T18:00:17.646Z,3.393519
2023-02-02T18:05:17.476Z,3.300926
2023-02-02T18:10:17.507Z,3.212963
2023-02-02T18:15:17.683Z,3.164352
2023-02-02T18:20:17.621Z,3.138889
2023-02-02T18:25:17.481Z,3.101852
2023-02-02T18:30:17.434Z,3.081019
2023-02-02T18:35:17.575Z,3.057870
2023-02-02T18:40:17.553Z,3.050926
2023-02-02T18:45:17.634Z,3.027778
2023-02-02T18:50:17.434Z,3.000000
2023-02-02T18:55:17.505Z,2.995370
2023-02-02T19:00:17.480Z,2.995370
2023-02-02T19:05:17.504Z,2.997685
2023-02-02T19:10:17.496Z,3.002315
2023-02-02T19:15:17.790Z,2.997685
2023-02-02T19:20:17.487Z,2.995370
2023-02-02T19:25:17.467Z,2.967593
2023-02-02T19:30:17.556Z,2.951389
2023-02-02T19:35:17.504Z,2.935185
2023-02-02T19:40:17.461Z,2.898148
2023-02-02T19:45:17.468Z,2.888889
2023-02-02T19:50:17.398Z,2.891204
2023-02-02T19:55:17.823Z,2.900463
2023-02-02T20:00:17.818Z,2.902778
2023-02-02T20:05:17.887Z,2.893333
2023-02-02T20:10:17.416Z,2.888889
2023-02-02T20:15:17.677Z,2.847222
2023-02-02T20:20:17.487Z,2.831019
2023-02-02T20:25:17.659Z,2.798611
2023-02-02T20:30:17.659Z,2.766204
2023-02-02T20:35:17.403Z,2.729167
2023-02-02T20:40:17.332Z,2.710648
2023-02-02T20:45:17.483Z,2.682870
2023-02-02T20:50:17.384Z,2.675926
2023-02-02T20:55:17.430Z,2.673611
2023-02-02T21:00:17.405Z,2.682870
2023-02-02T21:05:17.588Z,2.666667
2023-02-02T21:10:17.400Z,2.666667
2023-02-02T21:15:17.816Z,2.638889
2023-02-02T21:20:17.385Z,2.627315
2023-02-02T21:25:17.561Z,2.608796
2023-02-02T21:30:17.356Z,2.606481
2023-02-02T21:35:17.703Z,2.606481
2023-02-02T21:40:17.562Z,2.606481
2023-02-02T21:45:17.419Z,2.606481
2023-02-02T21:50:17.410Z,2.601852
2023-02-02T21:55:17.804Z,2.608889
2023-02-02T22:00:17.399Z,2.613426
2023-02-02T22:05:17.459Z,2.645833
2023-02-02T22:10:17.416Z,2.666667
2023-02-02T22:15:17.647Z,2.666667
2023-02-02T22:20:17.623Z,2.664352
2023-02-02T22:25:17.552Z,2.666667
2023-02-02T22:30:17.501Z,2.662037
2023-02-02T22:35:17.429Z,2.662037
2023-02-02T22:40:17.502Z,2.671296
2023-02-02T22:45:17.631Z,2.685185
2023-02-02T22:50:17.467Z,2.708333
2023-02-02T22:55:17.478Z,2.712963
2023-02-02T23:00:17.870Z,2.722222
2023-02-02T23:05:17.789Z,2.722222
2023-02-02T23:10:17.523Z,2.722222
2023-02-02T23:15:17.660Z,2.729167
2023-02-02T23:20:17.518Z,2.752315
2023-02-02T23:25:17.613Z,2.773333
2023-02-02T23:30:17.770Z,2.777778
2023-02-02T23:35:17.531Z,2.789352
2023-02-02T23:40:17.505Z,2.791667
2023-02-02T23:45:17.449Z,2.787037
2023-02-02T23:50:17.475Z,2.777778
2023-02-02T23:55:17.385Z,2.773148
